Time;durP1;ratioP1;P1;durP2;ratioP2;P2;SDS_P1;SDS_P2;PMS_P1;PMS_P2;Temp;Humidity;BMP_temperature;BMP_pressure;BME280_temperature;BME280_humidity;BME280_pressure;Samples;Min_cycle;Max_cycle;Signal;HPM_P1;HPM_P2
2022/08/10 00:02:27;;;;;;;8.65;5.37;;;;;;;15.63;67.43;99524.53;1645069;86;25694;-58
2022/08/10 00:04:53;;;;;;;7.80;4.53;;;;;;;15.59;67.54;99513.31;1643299;86;25714;-59
2022/08/10 00:07:19;;;;;;;6.47;4.30;;;;;;;15.56;67.62;99511.20;1648417;86;27499;-59
2022/08/10 00:09:45;;;;;;;8.95;4.50;;;;;;;15.52;67.72;99515.77;1648308;86;25628;-61
2022/08/10 00:12:11;;;;;;;10.95;5.20;;;;;;;15.48;67.89;99515.59;1647358;86;25468;-59
2022/08/10 00:14:37;;;;;;;8.15;4.50;;;;;;;15.47;67.96;99515.92;1648048;87;27846;-61
2022/08/10 00:17:04;;;;;;;5.33;4.10;;;;;;;15.41;68.21;99511.14;1648114;87;25445;-61
2022/08/10 00:19:30;;;;;;;10.18;5.35;;;;;;;15.39;68.33;99506.50;1648469;87;27336;-61
2022/08/10 00:21:56;;;;;;;7.67;4.87;;;;;;;15.38;68.47;99510.41;1647715;86;25635;-61
2022/08/10 00:24:23;;;;;;;10.32;4.60;;;;;;;15.38;68.47;99510.41;1646118;86;25647;-60
2022/08/10 00:26:49;;;;;;;8.68;5.60;;;;;;;15.35;68.37;99505.53;1643693;87;25907;-61
2022/08/10 00:29:15;;;;;;;7.90;5.37;;;;;;;15.30;68.56;99505.13;1644042;87;25448;-58
2022/08/10 00:31:41;;;;;;;8.18;5.50;;;;;;;15.27;68.64;99506.59;1643975;86;27390;-61
2022/08/10 00:34:07;;;;;;;10.93;5.45;;;;;;;15.27;68.66;99501.07;1648344;86;25977;-60
2022/08/10 00:36:33;;;;;;;9.78;5.17;;;;;;;15.26;68.76;99508.30;1644503;86;25702;-62
2022/08/10 00:38:59;;;;;;;10.00;5.55;;;;;;;15.22;68.95;99502.60;1648351;86;25918;-61
2022/08/10 00:41:25;;;;;;;7.28;5.40;;;;;;;15.12;69.07;99494.09;1648497;86;25681;-60
2022/08/10 00:43:51;;;;;;;8.40;5.15;;;;;;;15.16;69.19;99510.24;1648460;86;27593;-61
2022/08/10 00:46:17;;;;;;;9.83;5.28;;;;;;;15.13;69.29;99508.13;1647401;86;25448;-62
2022/08/10 00:48:44;;;;;;;6.08;4.70;;;;;;;15.09;69.30;99511.86;1648367;86;25658;-61
2022/08/10 00:51:11;;;;;;;8.78;5.28;;;;;;;15.06;69.49;99513.32;1648138;86;25764;-62
2022/08/10 00:53:37;;;;;;;8.88;5.28;;;;;;;15.04;69.58;99499.84;1648399;87;25524;-62
2022/08/10 00:56:04;;;;;;;6.25;4.42;;;;;;;14.97;69.61;99495.94;1647798;86;27407;-62
2022/08/10 00:58:30;;;;;;;8.13;4.92;;;;;;;15.02;69.52;99506.24;1648291;86;25508;-62
2022/08/10 01:00:57;;;;;;;7.95;5.40;;;;;;;15.00;69.57;99501.60;1648046;87;25467;-62
2022/08/10 01:03:23;;;;;;;6.17;5.25;;;;;;;15.02;69.71;99501.28;1648072;87;25851;-58
2022/08/10 01:06:00;;;;;;;7.22;4.87;;;;;;;15.03;69.75;99500.17;1647403;86;25692;-57
2022/08/10 01:08:50;;;;;;;6.90;4.67;;;;;;;15.01;69.91;99499.11;1652797;86;28050;-62
2022/08/10 01:11:45;;;;;;;8.08;5.30;;;;;;;14.97;70.04;99487.66;1652931;86;25935;-62
2022/08/10 01:14:54;;;;;;;8.43;5.25;;;;;;;15.00;69.84;99493.32;1653104;86;25661;-62
2022/08/10 01:17:38;;;;;;;7.47;5.08;;;;;;;14.86;70.02;99495.43;1653179;86;25800;-62
2022/08/10 01:21:01;;;;;;;7.85;4.87;;;;;;;14.84;70.05;99504.59;1650575;86;25484;-61
2022/08/10 01:23:54;;;;;;;7.03;4.80;;;;;;;14.84;70.05;99504.59;1652643;86;27377;-61
2022/08/10 01:27:07;;;;;;;8.60;5.10;;;;;;;14.77;70.34;99499.52;1647804;86;25521;-61
2022/08/10 01:30:08;;;;;;;10.35;5.45;;;;;;;14.74;70.50;99498.20;1597644;89;25863;-59
2022/08/10 01:32:54;;;;;;;6.28;5.25;;;;;;;14.65;70.56;99503.70;1596796;88;25780;-59
2022/08/10 01:35:53;;;;;;;7.72;5.25;;;;;;;14.60;70.60;99504.42;1597421;89;25713;-59
2022/08/10 01:38:26;;;;;;;7.78;5.40;;;;;;;14.56;70.81;99509.76;1597992;89;28471;-61
2022/08/10 01:41:18;;;;;;;9.75;5.60;;;;;;;14.47;71.06;99505.60;1598059;89;25531;-61
2022/08/10 01:43:55;;;;;;;10.95;5.03;;;;;;;14.44;71.05;99506.23;1597171;89;25761;-62
2022/08/10 01:46:23;;;;;;;9.78;5.40;;;;;;;14.41;71.24;99502.19;1597561;89;25894;-61
2022/08/10 01:48:54;;;;;;;8.80;5.00;;;;;;;14.43;71.23;99501.86;1597605;89;25609;-61
2022/08/10 01:51:38;;;;;;;8.25;5.55;;;;;;;14.45;71.27;99503.72;1598105;89;33156;-61
2022/08/10 01:54:11;;;;;;;6.92;4.90;;;;;;;14.45;71.26;99498.79;1595292;89;25730;-62
2022/08/10 01:56:49;;;;;;;6.87;4.90;;;;;;;14.42;71.25;99498.28;1595655;89;25787;-60
2022/08/10 01:59:23;;;;;;;7.08;5.47;;;;;;;14.15;71.78;99496.55;1595796;89;25730;-62
2022/08/10 02:02:01;;;;;;;8.50;5.40;;;;;;;14.15;71.78;99496.55;1595664;89;25668;-59
2022/08/10 02:04:32;;;;;;;6.37;4.90;;;;;;;14.15;72.05;99502.06;1597882;89;28247;-59
2022/08/10 02:07:05;;;;;;;9.88;5.30;;;;;;;14.14;72.20;99501.83;1641597;85;26005;-61
2022/08/10 02:09:39;;;;;;;9.30;5.35;;;;;;;14.15;72.18;99506.20;1663126;86;25444;-59
2022/08/10 02:12:10;;;;;;;7.62;5.37;;;;;;;14.15;72.18;99506.20;1662369;85;25727;-60
2022/08/10 02:14:50;;;;;;;6.53;4.85;;;;;;;14.20;72.31;99505.25;1660118;86;25661;-61
2022/08/10 02:17:27;;;;;;;8.93;4.97;;;;;;;14.17;72.62;99504.74;1660673;86;27350;-61
2022/08/10 02:19:58;;;;;;;8.20;5.83;;;;;;;14.24;72.53;99505.67;1660789;86;25701;-61
2022/08/10 02:22:26;;;;;;;8.28;5.30;;;;;;;14.29;72.42;99504.72;1660900;85;25694;-61
2022/08/10 02:25:01;;;;;;;7.90;5.28;;;;;;;14.28;72.38;99505.28;1662952;86;25921;-62
2022/08/10 02:27:33;;;;;;;10.78;6.05;;;;;;;14.26;72.47;99506.73;1663043;86;25701;-62
2022/08/10 02:30:04;;;;;;;9.45;6.00;;;;;;;14.25;72.51;99505.13;1662908;86;27455;-61
2022/08/10 02:32:32;;;;;;;6.75;5.03;;;;;;;14.24;72.59;99511.19;1662322;85;25641;-62
2022/08/10 02:35:02;;;;;;;8.33;5.33;;;;;;;14.22;72.63;99512.06;1662251;85;25527;-61
2022/08/10 02:37:30;;;;;;;7.85;5.58;;;;;;;14.18;72.81;99513.28;1662969;86;25695;-61
2022/08/10 02:39:56;;;;;;;8.30;5.25;;;;;;;14.15;72.95;99515.84;1663117;86;25460;-60
2022/08/10 02:42:43;;;;;;;9.50;5.72;;;;;;;14.14;73.03;99513.64;1662414;85;27608;-62
2022/08/10 02:45:16;;;;;;;7.40;5.30;;;;;;;14.14;73.03;99517.78;1649213;87;25980;-61
2022/08/10 02:47:51;;;;;;;7.42;5.20;;;;;;;14.17;73.04;99519.91;1648950;87;25492;-62
2022/08/10 02:50:33;;;;;;;7.70;5.20;;;;;;;14.13;72.92;99516.74;1649072;84;25829;-61
2022/08/10 02:53:07;;;;;;;7.65;5.55;;;;;;;14.10;73.27;99514.03;1652242;85;25779;-61
2022/08/10 02:55:48;;;;;;;7.53;5.47;;;;;;;14.12;73.22;99518.68;1661464;86;28078;-58
2022/08/10 02:58:28;;;;;;;8.10;5.33;;;;;;;14.10;73.07;99522.30;1661006;86;25480;-58
2022/08/10 03:00:56;;;;;;;9.48;5.67;;;;;;;14.08;73.25;99521.83;1660204;86;25631;-61
2022/08/10 03:03:28;;;;;;;7.83;5.35;;;;;;;14.07;73.23;99518.01;1660166;85;25777;-59
2022/08/10 03:06:08;;;;;;;7.47;5.00;;;;;;;14.04;73.12;99518.88;1660316;86;25430;-62
2022/08/10 03:08:39;;;;;;;8.30;5.55;;;;;;;13.94;73.33;99517.77;1647841;86;27578;-58
2022/08/10 03:11:09;;;;;;;7.83;5.42;;;;;;;13.77;73.63;99526.19;1643508;87;25485;-61
2022/08/10 03:13:36;;;;;;;9.25;5.58;;;;;;;13.62;73.78;99525.18;1646050;86;25821;-62
2022/08/10 03:16:04;;;;;;;9.15;5.50;;;;;;;13.54;74.02;99529.49;1646479;86;25867;-62
2022/08/10 03:18:32;;;;;;;8.98;5.83;;;;;;;13.42;74.32;99525.31;1648606;86;25453;-60
2022/08/10 03:20:59;;;;;;;8.90;5.15;;;;;;;13.32;74.68;99528.89;1648401;86;27371;-58
2022/08/10 03:23:27;;;;;;;8.63;5.65;;;;;;;13.29;74.86;99529.75;1648089;87;25671;-62
2022/08/10 03:25:56;;;;;;;8.15;5.17;;;;;;;13.31;74.89;99532.20;1647437;86;25670;-62
2022/08/10 03:28:29;;;;;;;9.63;5.40;;;;;;;13.35;74.94;99526.86;1648548;86;25707;-61
2022/08/10 03:30:58;;;;;;;8.23;5.53;;;;;;;13.40;74.99;99539.14;1648451;86;25479;-61
2022/08/10 03:33:29;;;;;;;9.45;5.80;;;;;;;13.46;75.03;99536.53;1648396;86;27408;-61
2022/08/10 03:35:56;;;;;;;7.42;5.45;;;;;;;13.43;75.11;99537.15;1646696;86;25677;-62
2022/08/10 03:38:22;;;;;;;7.67;5.37;;;;;;;13.45;75.08;99539.04;1648595;86;25846;-61
2022/08/10 03:40:51;;;;;;;7.10;5.37;;;;;;;13.36;75.46;99534.81;1648375;87;25583;-61
2022/08/10 03:43:20;;;;;;;8.60;5.62;;;;;;;13.30;75.62;99535.50;1648439;86;25452;-61
2022/08/10 03:45:53;;;;;;;8.58;5.95;;;;;;;13.34;75.72;99537.08;1647677;86;27437;-58
2022/08/10 03:48:22;;;;;;;9.95;6.03;;;;;;;13.43;75.62;99539.91;1648146;86;25605;-61
2022/08/10 03:50:50;;;;;;;8.35;5.62;;;;;;;13.50;75.44;99540.89;1648484;86;25687;-61
2022/08/10 03:53:17;;;;;;;9.35;6.60;;;;;;;13.58;75.38;99539.33;1648384;86;25840;-58
2022/08/10 03:55:45;;;;;;;8.13;5.45;;;;;;;13.64;75.29;99541.63;1647495;86;25468;-62
2022/08/10 03:58:12;;;;;;;8.38;5.70;;;;;;;13.65;75.16;99539.70;1648224;86;27489;-61
2022/08/10 04:00:38;;;;;;;8.90;5.70;;;;;;;13.62;75.23;99541.13;1648288;86;25868;-60
2022/08/10 04:03:05;;;;;;;9.43;5.70;;;;;;;13.58;75.39;99540.70;1631418;87;25684;-62
2022/08/10 04:05:33;;;;;;;8.08;5.60;;;;;;;13.55;75.81;99541.58;1647764;86;25501;-62
2022/08/10 04:08:01;;;;;;;8.90;6.03;;;;;;;13.58;75.96;99545.63;1648010;86;25766;-60
2022/08/10 04:10:28;;;;;;;8.68;5.53;;;;;;;13.64;76.39;99549.89;1648377;86;27371;-57
2022/08/10 04:12:55;;;;;;;9.38;5.97;;;;;;;13.63;76.97;99551.59;1648155;86;26122;-57
2022/08/10 04:15:27;;;;;;;8.90;5.97;;;;;;;13.61;77.42;99556.03;1647659;86;25436;-57
2022/08/10 04:17:50;;;;;;;8.68;5.70;;;;;;;13.85;76.55;99556.30;1647632;86;25659;-60
2022/08/10 04:20:34;;;;;;;7.42;5.95;;;;;;;13.85;76.55;99556.30;1648467;87;25662;-57
2022/08/10 04:23:07;;;;;;;9.78;6.35;;;;;;;14.01;76.02;99558.64;1648302;86;27628;-59
2022/08/10 04:25:35;;;;;;;8.05;5.83;;;;;;;14.22;75.76;99563.06;1642976;86;25419;-58
2022/08/10 04:28:02;;;;;;;11.73;6.28;;;;;;;14.44;75.61;99565.53;1644101;87;25489;-59
2022/08/10 04:30:31;;;;;;;8.80;6.20;;;;;;;14.63;75.26;99557.02;1647922;86;25732;-59
2022/08/10 04:33:01;;;;;;;9.23;6.00;;;;;;;14.78;75.31;99564.60;1648512;86;25619;-59
2022/08/10 04:35:31;;;;;;;10.28;6.53;;;;;;;14.77;74.67;99563.78;1646198;86;29236;-61
2022/08/10 04:38:06;;;;;;;8.65;5.70;;;;;;;14.85;74.75;99565.56;1648067;86;25793;-59
2022/08/10 04:40:40;;;;;;;8.65;5.92;;;;;;;14.85;74.75;99565.56;1648471;86;25614;-59
2022/08/10 04:43:07;;;;;;;10.40;6.00;;;;;;;14.92;74.76;99566.72;1648242;87;25811;-59
2022/08/10 04:45:34;;;;;;;7.95;5.70;;;;;;;15.02;74.63;99569.73;1639909;86;25485;-59
2022/08/10 04:48:00;;;;;;;10.05;6.35;;;;;;;15.16;74.64;99577.88;1643959;87;27438;-61
2022/08/10 04:50:27;;;;;;;12.55;6.42;;;;;;;15.25;74.55;99559.12;1639901;86;25603;-62
2022/08/10 04:52:53;;;;;;;12.15;6.05;;;;;;;15.38;73.66;99569.22;1625186;87;25474;-62
2022/08/10 04:55:20;;;;;;;9.50;6.08;;;;;;;15.45;73.57;99565.96;1628628;86;25812;-58
2022/08/10 04:57:46;;;;;;;9.53;6.22;;;;;;;15.57;73.41;99568.07;1643950;87;25704;-63
2022/08/10 05:00:14;;;;;;;7.28;5.60;;;;;;;15.64;73.11;99562.89;1640828;86;27424;-59
2022/08/10 05:02:40;;;;;;;7.58;5.45;;;;;;;15.72;72.92;99565.97;1628249;86;25802;-61
2022/08/10 05:05:08;;;;;;;8.48;6.05;;;;;;;15.89;72.66;99566.53;1633340;85;25758;-61
2022/08/10 05:07:34;;;;;;;7.30;5.03;;;;;;;16.03;71.92;99571.31;1640935;85;25701;-58
2022/08/10 05:10:00;;;;;;;13.53;6.35;;;;;;;16.13;71.30;99574.31;1647718;85;26389;-63
2022/08/10 05:12:26;;;;;;;10.08;5.97;;;;;;;16.20;71.93;99573.80;1647357;86;27450;-59
2022/08/10 05:14:53;;;;;;;8.30;5.65;;;;;;;16.33;71.56;99577.52;1650540;85;25846;-62
2022/08/10 05:17:19;;;;;;;9.03;5.95;;;;;;;16.47;71.27;99576.48;1661935;86;25742;-58
2022/08/10 05:19:45;;;;;;;10.00;6.12;;;;;;;16.67;71.12;99583.25;1661503;86;25728;-64
2022/08/10 05:22:12;;;;;;;8.28;5.58;;;;;;;16.78;70.49;99586.46;1661189;85;25765;-58
2022/08/10 05:24:38;;;;;;;13.72;5.28;;;;;;;16.81;70.09;99585.20;1654583;85;27442;-60
2022/08/10 05:27:05;;;;;;;8.38;4.87;;;;;;;16.92;70.11;99582.87;1659504;86;25894;-62
2022/08/10 05:29:32;;;;;;;8.78;4.97;;;;;;;17.06;69.51;99588.17;1659358;86;25738;-60
2022/08/10 05:31:59;;;;;;;7.90;4.70;;;;;;;17.19;69.45;99591.06;1659995;86;25825;-62
2022/08/10 05:34:27;;;;;;;7.33;4.80;;;;;;;17.35;68.91;99585.73;1657859;85;25668;-62
2022/08/10 05:36:55;;;;;;;8.15;4.67;;;;;;;17.56;69.08;99589.09;1659855;85;28312;-63
2022/08/10 05:39:22;;;;;;;7.22;4.42;;;;;;;17.75;67.82;99588.60;1662944;86;25740;-61
2022/08/10 05:41:52;;;;;;;11.35;4.40;;;;;;;17.92;67.44;99580.70;1663031;86;25701;-60
2022/08/10 05:44:21;;;;;;;13.03;3.85;;;;;;;18.12;66.74;99585.76;1663081;86;25599;-58
2022/08/10 05:46:50;;;;;;;6.10;3.47;;;;;;;18.22;65.83;99573.43;1661911;85;25711;-58
2022/08/10 05:52:05;;;;;;;7.35;3.50;;;;;;;18.45;65.44;99577.17;1635444;87;25574;-58
2022/08/10 05:54:32;;;;;;;4.35;3.12;;;;;;;18.60;65.01;99581.23;1635142;87;25818;-60
2022/08/10 05:56:59;;;;;;;4.72;3.02;;;;;;;18.74;63.08;99583.67;1635304;86;25967;-59
2022/08/10 05:59:32;;;;;;;6.08;3.20;;;;;;;18.84;64.01;99580.43;1634637;86;25466;-59
2022/08/10 06:02:04;;;;;;;6.55;2.90;;;;;;;18.92;62.98;99584.25;1635833;87;27385;-59
2022/08/10 06:04:38;;;;;;;3.70;2.80;;;;;;;18.92;63.64;99584.25;1635923;87;25534;-59
2022/08/10 06:07:07;;;;;;;6.75;3.30;;;;;;;18.98;62.54;99585.64;1635610;87;25536;-61
2022/08/10 06:09:36;;;;;;;6.10;2.70;;;;;;;19.11;62.07;99587.84;1634828;86;25751;-61
2022/08/10 06:12:04;;;;;;;6.40;3.00;;;;;;;19.14;61.11;99590.52;1650324;86;25520;-59
2022/08/10 06:17:18;;;;;;;6.42;2.75;;;;;;;19.38;61.02;99593.02;1633013;87;25564;-57
2022/08/10 06:19:45;;;;;;;3.20;2.30;;;;;;;19.35;60.45;99590.94;1652064;86;25654;-59
2022/08/10 06:22:13;;;;;;;5.05;2.67;;;;;;;19.36;59.97;99596.14;1637392;86;25791;-61
2022/08/10 06:24:41;;;;;;;5.85;2.90;;;;;;;19.43;60.10;99594.17;1634615;87;25710;-58
2022/08/10 06:27:08;;;;;;;7.20;2.95;;;;;;;19.42;59.83;99593.36;1634425;87;27601;-57
2022/08/10 06:29:39;;;;;;;4.05;2.55;;;;;;;19.42;60.38;99595.31;1674997;84;25667;-57
2022/08/10 06:32:09;;;;;;;4.85;2.87;;;;;;;19.60;60.16;99596.45;1693319;84;26539;-59
2022/08/10 06:34:46;;;;;;;4.92;2.65;;;;;;;19.88;60.50;99599.80;1698757;84;25793;-59
2022/08/10 06:37:16;;;;;;;2.72;2.50;;;;;;;20.03;59.57;99591.30;1699135;83;25650;-59
2022/08/10 06:39:44;;;;;;;6.53;2.55;;;;;;;20.24;58.78;99594.45;1698361;84;27484;-59
2022/08/10 06:42:34;;;;;;;3.40;2.70;;;;;;;20.38;59.08;99593.43;1698475;83;25536;-59
2022/08/10 06:45:16;;;;;;;5.15;2.27;;;;;;;20.47;57.66;99597.45;1709392;83;25614;-57
2022/08/10 06:47:59;;;;;;;4.45;2.50;;;;;;;20.73;57.21;99596.69;1717788;83;26535;-58
2022/08/10 06:50:39;;;;;;;5.37;2.27;;;;;;;20.93;58.09;99597.00;1707967;83;25460;-58
2022/08/10 06:53:16;;;;;;;3.85;2.55;;;;;;;21.11;56.04;99602.20;1691668;84;27838;-59
2022/08/10 06:55:52;;;;;;;3.35;2.45;;;;;;;21.25;56.34;99596.16;1690345;84;25886;-58
2022/08/10 06:58:22;;;;;;;6.87;2.42;;;;;;;21.29;55.88;99595.64;1690851;84;25421;-58
2022/08/10 07:00:51;;;;;;;2.92;2.62;;;;;;;21.30;56.23;99597.25;1690558;84;25732;-60
2022/08/10 07:03:19;;;;;;;4.12;2.40;;;;;;;21.38;55.87;99602.98;1705167;83;25440;-59
2022/08/10 07:05:48;;;;;;;4.78;2.60;;;;;;;21.46;56.21;99605.34;1711906;83;27378;-59
2022/08/10 07:08:17;;;;;;;3.62;2.52;;;;;;;21.55;55.28;99598.39;1711845;83;25622;-61
2022/08/10 07:10:47;;;;;;;2.98;2.35;;;;;;;21.44;54.68;99600.94;1711310;83;25589;-59
2022/08/10 07:13:19;;;;;;;5.33;2.40;;;;;;;21.52;54.89;99591.33;1694404;83;25762;-60
2022/08/10 07:15:49;;;;;;;4.08;2.30;;;;;;;21.59;54.91;99601.27;1690686;84;25731;-59
2022/08/10 07:18:18;;;;;;;5.15;2.37;;;;;;;21.59;53.61;99601.27;1690677;84;27416;-59
2022/08/10 07:20:47;;;;;;;5.00;2.50;;;;;;;21.71;54.06;99592.52;1690611;84;25638;-62
2022/08/10 07:23:16;;;;;;;4.60;2.58;;;;;;;21.93;54.23;99598.78;1665189;84;25680;-61
2022/08/10 07:25:45;;;;;;;3.35;2.27;;;;;;;22.17;53.45;99603.02;1690419;84;25843;-63
2022/08/10 07:28:13;;;;;;;4.78;2.45;;;;;;;22.42;53.54;99600.68;1687592;83;25723;-59
2022/08/10 07:30:41;;;;;;;2.92;2.30;;;;;;;22.49;52.07;99597.22;1691379;84;28699;-62
2022/08/10 07:33:11;;;;;;;3.70;1.98;;;;;;;22.58;50.90;99595.59;1691997;84;25580;-59
2022/08/10 07:35:39;;;;;;;3.98;2.20;;;;;;;22.49;50.19;99590.23;1666583;84;25481;-59
2022/08/10 07:38:16;;;;;;;3.83;2.33;;;;;;;22.40;50.63;99593.25;1666503;84;25841;-62
2022/08/10 07:40:45;;;;;;;2.70;2.17;;;;;;;22.40;49.65;99591.07;1711768;83;25683;-62
2022/08/10 07:43:13;;;;;;;2.70;2.20;;;;;;;22.51;50.52;99589.25;1711906;83;27458;-63
2022/08/10 07:45:40;;;;;;;3.02;1.90;;;;;;;22.85;49.39;99585.84;1707888;83;25420;-61
2022/08/10 07:48:14;;;;;;;3.35;2.20;;;;;;;22.83;48.83;99584.62;1690599;84;25426;-58
2022/08/10 07:50:45;;;;;;;2.70;2.00;;;;;;;22.99;47.98;99590.86;1690298;84;26830;-60
2022/08/10 07:53:19;;;;;;;;;;;;;;;23.15;48.98;99590.71;1693327;84;25433;-59
2022/08/10 07:55:47;;;;;;;2.55;1.80;;;;;;;23.35;48.48;99593.38;1690628;84;27647;-59
2022/08/10 07:58:16;;;;;;;2.17;1.90;;;;;;;23.39;46.08;99584.47;1690692;84;26093;-59
2022/08/10 08:00:45;;;;;;;5.83;2.00;;;;;;;23.36;45.66;99589.39;1664919;84;25663;-59
2022/08/10 08:03:13;;;;;;;4.37;2.10;;;;;;;23.39;45.79;99587.84;1690477;84;26591;-59
2022/08/10 08:05:41;;;;;;;2.92;1.72;;;;;;;23.46;45.35;99585.75;1690691;84;25493;-59
2022/08/10 08:08:10;;;;;;;3.98;1.77;;;;;;;23.56;45.22;99583.68;1690585;84;27678;-58
2022/08/10 08:10:37;;;;;;;3.20;2.10;;;;;;;23.43;44.64;99583.91;1665133;84;25778;-59
2022/08/10 08:13:05;;;;;;;4.90;2.17;;;;;;;23.59;45.60;99588.52;1690635;84;25686;-58
2022/08/10 08:15:34;;;;;;;3.60;2.02;;;;;;;24.00;45.48;99583.59;1690711;84;25693;-59
2022/08/10 08:18:02;;;;;;;2.85;1.72;;;;;;;24.38;44.27;99582.81;1690781;84;25608;-59
2022/08/10 08:20:30;;;;;;;4.50;1.72;;;;;;;24.42;42.98;99579.44;1690076;84;27319;-59
2022/08/10 08:22:58;;;;;;;2.12;1.65;;;;;;;24.31;42.97;99580.15;1690773;84;25620;-58
2022/08/10 08:25:25;;;;;;;3.95;1.87;;;;;;;24.54;42.30;99573.55;1690661;84;25467;-59
2022/08/10 08:27:55;;;;;;;2.22;1.70;;;;;;;24.53;42.45;99576.13;1690293;84;25902;-61
2022/08/10 08:30:23;;;;;;;2.22;1.62;;;;;;;24.77;42.87;99576.73;1690732;84;25612;-62
2022/08/10 08:32:52;;;;;;;3.75;1.72;;;;;;;25.11;41.64;99574.98;1690717;84;27549;-61
2022/08/10 08:35:21;;;;;;;2.58;1.98;;;;;;;25.18;40.89;99580.03;1690629;84;25742;-61
2022/08/10 08:37:51;;;;;;;3.72;2.02;;;;;;;25.09;41.85;99573.97;1690381;84;25667;-59
2022/08/10 08:40:27;;;;;;;5.65;2.50;;;;;;;25.21;40.82;99575.64;1709013;83;25646;-59
2022/08/10 08:43:27;;;;;;;2.85;2.10;;;;;;;25.06;40.81;99574.16;1712030;83;25441;-58
2022/08/10 08:46:30;;;;;;;3.90;2.20;;;;;;;25.00;41.19;99576.30;1710930;83;27465;-60
2022/08/10 08:49:33;;;;;;;4.90;2.12;;;;;;;25.12;41.03;99570.97;1711398;83;25664;-59
2022/08/10 08:52:36;;;;;;;3.85;2.00;;;;;;;25.88;41.18;99571.34;1715052;83;25196;-59
2022/08/10 08:55:35;;;;;;;2.67;1.85;;;;;;;26.33;39.44;99582.12;1703620;83;25866;-61
2022/08/10 08:58:30;;;;;;;4.62;1.82;;;;;;;25.71;39.46;99569.29;1699290;84;25611;-59
2022/08/10 09:01:37;;;;;;;3.85;2.10;;;;;;;25.69;39.98;99569.69;1699618;84;27848;-60
2022/08/10 09:04:35;;;;;;;2.98;1.80;;;;;;;25.85;38.97;99580.58;1685245;84;25445;-60
2022/08/10 09:07:26;;;;;;;3.10;2.10;;;;;;;25.70;38.75;99581.11;1699919;84;25605;-62
2022/08/10 09:10:14;;;;;;;2.87;2.20;;;;;;;25.71;38.11;99576.30;1697936;84;26529;-60
2022/08/10 09:13:01;;;;;;;2.30;2.00;;;;;;;25.71;37.76;99570.10;1699623;84;25427;-60
2022/08/10 09:15:39;;;;;;;4.37;2.20;;;;;;;26.00;37.41;99574.41;1699892;84;27420;-61
2022/08/10 09:18:14;;;;;;;4.53;2.20;;;;;;;26.21;37.43;99577.04;1615937;88;25706;-61
2022/08/10 09:20:54;;;;;;;4.62;1.90;;;;;;;26.31;37.62;99567.06;1615965;88;25789;-61
2022/08/10 09:23:35;;;;;;;2.50;2.12;;;;;;;26.35;36.73;99563.65;1614962;88;25600;-61
2022/08/10 09:26:12;;;;;;;3.65;2.10;;;;;;;26.63;37.00;99566.86;1612599;88;26091;-60
2022/08/10 09:28:42;;;;;;;4.67;2.42;;;;;;;26.88;36.20;99567.45;1614575;88;27602;-61
2022/08/10 09:31:11;;;;;;;5.40;2.25;;;;;;;26.85;36.99;99561.23;1614248;88;25837;-61
2022/08/10 09:34:00;;;;;;;8.10;2.27;;;;;;;27.18;36.54;99552.96;1614528;88;25623;-60
2022/08/10 09:37:00;;;;;;;5.28;2.77;;;;;;;27.28;35.60;99555.53;1614774;88;25729;-60
2022/08/10 09:39:45;;;;;;;;;;;;;;;26.80;36.76;99568.84;1614985;88;25851;-60
2022/08/10 09:42:19;;;;;;;3.95;2.60;;;;;;;26.51;37.67;99566.67;1556826;92;27972;-61
2022/08/10 09:45:03;;;;;;;5.08;2.50;;;;;;;26.61;37.27;99558.02;1536905;92;25765;-63
2022/08/10 09:47:47;;;;;;;5.65;2.75;;;;;;;26.54;36.28;99562.44;1545503;91;25534;-61
2022/08/10 09:50:36;;;;;;;3.60;2.60;;;;;;;26.59;36.05;99555.61;1537880;93;25695;-62
2022/08/10 09:53:25;;;;;;;3.62;2.50;;;;;;;26.93;36.06;99547.34;1552498;91;25832;-60
2022/08/10 09:56:25;;;;;;;4.85;2.60;;;;;;;27.61;35.47;99551.19;1575632;90;28375;-60
2022/08/10 09:59:20;;;;;;;6.22;2.50;;;;;;;28.06;35.27;99539.89;1566952;91;25510;-60
2022/08/10 10:01:54;;;;;;;6.92;2.70;;;;;;;27.97;34.26;99535.34;1545200;91;25797;-61
2022/08/10 10:04:29;;;;;;;2.55;2.15;;;;;;;28.21;34.47;99530.75;1518368;93;25742;-61
2022/08/10 10:06:59;;;;;;;4.70;2.12;;;;;;;28.01;33.80;99534.08;1540015;93;25699;-60
2022/08/10 10:09:49;;;;;;;4.05;2.30;;;;;;;27.50;35.88;99536.34;1539453;93;27519;-61
2022/08/10 10:12:24;;;;;;;6.50;2.20;;;;;;;27.24;35.18;99528.61;1540039;93;25713;-63
2022/08/10 10:15:20;;;;;;;4.70;2.05;;;;;;;27.24;36.45;99528.02;1540740;93;25521;-60
2022/08/10 10:18:08;;;;;;;2.80;1.80;;;;;;;27.18;35.54;99525.42;1534460;93;25765;-60
2022/08/10 10:21:01;;;;;;;3.77;2.27;;;;;;;26.52;36.10;99532.55;1555147;90;25758;-61
2022/08/10 10:23:55;;;;;;;5.53;2.45;;;;;;;26.30;37.01;99528.91;1555022;92;27522;-63
2022/08/10 10:26:39;;;;;;;2.30;2.00;;;;;;;26.68;36.69;99525.09;1554929;92;25690;-60
2022/08/10 10:29:37;;;;;;;4.70;2.00;;;;;;;27.08;35.58;99519.23;1555081;92;25827;-60
2022/08/10 10:32:27;;;;;;;4.50;2.10;;;;;;;27.18;35.52;99519.80;1554960;92;26171;-58
2022/08/10 10:35:11;;;;;;;4.55;2.15;;;;;;;27.20;34.75;99519.39;1555175;92;25746;-58
2022/08/10 10:37:38;;;;;;;4.10;2.17;;;;;;;27.19;36.14;99512.95;1578272;87;27543;-58
2022/08/10 10:40:08;;;;;;;2.75;1.72;;;;;;;27.44;34.53;99512.05;1713094;83;25691;-58
2022/08/10 10:43:01;;;;;;;4.15;2.08;;;;;;;27.65;34.63;99508.92;1717356;83;25509;-58
2022/08/10 10:45:56;;;;;;;3.02;1.60;;;;;;;27.52;34.30;99513.61;1716963;83;25912;-59
2022/08/10 10:48:40;;;;;;;2.67;2.12;;;;;;;27.50;33.55;99507.61;1717015;83;25459;-58
2022/08/10 10:51:29;;;;;;;2.85;1.65;;;;;;;27.69;33.72;99505.53;1717350;83;27463;-58
2022/08/10 10:54:16;;;;;;;3.25;2.08;;;;;;;27.60;34.09;99504.52;1703322;83;25800;-58
2022/08/10 10:57:10;;;;;;;2.87;1.67;;;;;;;28.00;34.08;99506.35;1695211;84;25519;-59
2022/08/10 11:00:03;;;;;;;3.60;1.90;;;;;;;28.63;32.72;99501.21;1698142;84;26824;-58
2022/08/10 11:03:11;;;;;;;2.65;1.60;;;;;;;28.88;32.60;99505.80;1698418;83;25616;-58
2022/08/10 11:05:46;;;;;;;2.65;1.90;;;;;;;28.79;32.42;99509.12;1698598;84;26936;-58
2022/08/10 11:08:25;;;;;;;2.17;1.98;;;;;;;28.59;32.76;99507.50;1697818;84;25425;-59
2022/08/10 11:11:06;;;;;;;1.80;1.40;;;;;;;28.68;31.96;99502.78;1698328;84;32234;-58
2022/08/10 11:13:56;;;;;;;3.05;1.70;;;;;;;28.46;31.85;99501.56;1697269;84;26541;-58
2022/08/10 11:16:47;;;;;;;1.82;1.40;;;;;;;28.54;32.33;99494.66;1698536;84;25631;-57
2022/08/10 11:19:37;;;;;;;3.15;1.60;;;;;;;29.02;31.04;99488.55;1697450;84;27385;-57
2022/08/10 11:22:34;;;;;;;1.57;1.47;;;;;;;28.99;30.99;99485.97;1698009;84;25659;-59
2022/08/10 11:25:05;;;;;;;1.62;1.40;;;;;;;29.52;30.32;99493.36;1618408;88;25510;-57
2022/08/10 11:28:21;;;;;;;3.30;1.70;;;;;;;28.98;31.14;99501.91;1613308;88;26571;-58
2022/08/10 11:30:53;;;;;;;2.08;1.65;;;;;;;28.31;31.25;99496.67;1618041;88;25505;-60
2022/08/10 11:33:43;;;;;;;2.17;1.55;;;;;;;27.84;31.46;99489.95;1616116;88;27459;-59
2022/08/10 11:36:17;;;;;;;2.27;1.85;;;;;;;27.84;31.90;99491.35;1617923;88;25577;-58
2022/08/10 11:39:01;;;;;;;3.83;1.70;;;;;;;28.26;32.31;99488.65;1574563;90;25893;-59
2022/08/10 11:41:38;;;;;;;1.82;1.02;;;;;;;28.67;32.86;99492.73;1574332;91;25705;-58
2022/08/10 11:44:32;;;;;;;1.62;1.35;;;;;;;28.70;30.70;99496.72;1573954;90;25862;-58
2022/08/10 11:47:16;;;;;;;2.15;1.60;;;;;;;28.31;32.43;99495.26;1521366;93;28029;-58
2022/08/10 11:50:09;;;;;;;3.33;1.65;;;;;;;27.92;33.18;99485.25;1520640;94;25835;-59
2022/08/10 11:52:59;;;;;;;1.92;1.65;;;;;;;27.77;33.67;99490.78;1517731;94;25758;-60
2022/08/10 11:55:32;;;;;;;5.30;1.60;;;;;;;28.02;33.64;99485.00;1514627;94;27890;-59
2022/08/10 12:01:05;;;;;;;1.67;1.57;;;;;;;28.15;33.77;99483.09;1521344;90;25884;-59
2022/08/10 12:03:35;;;;;;;2.12;1.50;;;;;;;27.85;33.32;99483.09;1582708;90;25724;-58
2022/08/10 12:06:04;;;;;;;1.92;1.55;;;;;;;27.17;33.78;99493.66;1582815;90;25824;-60
2022/08/10 12:08:32;;;;;;;1.77;1.63;;;;;;;26.79;34.18;99493.34;1562558;90;25767;-59
2022/08/10 12:11:00;;;;;;;2.37;1.70;;;;;;;26.70;34.80;99490.95;1582505;90;25712;-59
2022/08/10 12:13:41;;;;;;;3.47;1.70;;;;;;;26.58;35.71;99482.94;1582721;90;26832;-60
2022/08/10 12:16:13;;;;;;;3.52;1.80;;;;;;;26.41;35.82;99488.99;1602072;88;25856;-59
2022/08/10 12:19:17;;;;;;;3.47;1.67;;;;;;;26.70;35.21;99485.33;1630212;87;25759;-61
2022/08/10 12:22:04;;;;;;;2.67;1.60;;;;;;;27.02;34.39;99474.63;1630757;88;25804;-58